Time;durP1;ratioP1;P1;durP2;ratioP2;P2;SDS_P1;SDS_P2;PMS_P1;PMS_P2;Temp;Humidity;BMP_temperature;BMP_pressure;BME280_temperature;BME280_humidity;BME280_pressure;Samples;Min_cycle;Max_cycle;Signal;HPM_P1;HPM_P2
2021/07/24 00:01:14;;;;;;;11.43;7.53;;;20.50;78.50;;;;;;4985784;28;20030;-88
2021/07/24 00:03:41;;;;;;;10.63;8.00;;;20.50;78.90;;;;;;4992685;28;20053;-88
2021/07/24 00:06:06;;;;;;;11.60;7.82;;;20.50;78.70;;;;;;4988289;28;20121;-88
2021/07/24 00:08:33;;;;;;;10.02;7.43;;;20.40;78.90;;;;;;4996741;28;20112;-88
2021/07/24 00:11:06;;;;;;;8.63;7.10;;;20.40;79.30;;;;;;4963952;28;20495;-89
2021/07/24 00:13:33;;;;;;;11.90;7.25;;;20.40;79.40;;;;;;4963723;28;20027;-88
2021/07/24 00:15:59;;;;;;;10.77;8.00;;;20.40;79.30;;;;;;4985661;28;20045;-89
2021/07/24 00:18:27;;;;;;;9.65;7.82;;;20.30;79.20;;;;;;5002464;28;20084;-89
2021/07/24 00:20:53;;;;;;;10.15;7.80;;;20.30;79.40;;;;;;4961932;28;20023;-89
2021/07/24 00:23:19;;;;;;;10.00;7.45;;;20.30;79.50;;;;;;4970720;28;20031;-89
2021/07/24 00:25:45;;;;;;;11.65;7.20;;;20.30;79.50;;;;;;4979069;28;20023;-89
2021/07/24 00:28:10;;;;;;;9.20;7.22;;;20.20;79.50;;;;;;4987841;28;20038;-88
2021/07/24 00:30:37;;;;;;;11.70;8.05;;;20.30;79.50;;;;;;4996993;28;20065;-88
2021/07/24 00:33:03;;;;;;;10.60;7.82;;;20.20;79.80;;;;;;4978106;28;20113;-89
2021/07/24 00:35:29;;;;;;;9.60;7.32;;;20.20;79.70;;;;;;4993182;28;20061;-89
2021/07/24 00:37:54;;;;;;;11.07;7.30;;;20.20;79.90;;;;;;4981054;28;20030;-89
2021/07/24 00:40:25;;;;;;;11.38;7.60;;;20.20;79.80;;;;;;4967084;28;20518;-88
2021/07/24 00:42:51;;;;;;;;;;;20.10;79.80;;;;;;4997396;28;20022;-89
2021/07/24 00:45:20;;;;;;;13.07;8.05;;;20.10;80.40;;;;;;4992919;28;19920;-91
2021/07/24 00:47:52;;;;;;;11.23;7.80;;;20.10;80.30;;;;;;5003654;28;20018;-88
2021/07/24 00:50:18;;;;;;;10.70;8.35;;;20.00;80.20;;;;;;5001542;28;20030;-88
2021/07/24 00:52:44;;;;;;;16.23;9.23;;;20.00;80.00;;;;;;4987271;28;20490;-89
2021/07/24 00:55:12;;;;;;;10.45;7.85;;;20.00;80.30;;;;;;5007084;28;20037;-91
2021/07/24 00:57:40;;;;;;;10.38;8.15;;;20.00;80.30;;;;;;4981410;28;20026;-90
2021/07/24 01:00:08;;;;;;;9.82;7.32;;;20.00;80.70;;;;;;4984075;28;20026;-89
2021/07/24 01:02:33;;;;;;;10.40;7.88;;;19.90;80.80;;;;;;5001189;28;20053;-88
2021/07/24 01:05:01;;;;;;;11.30;8.25;;;19.90;80.70;;;;;;5014086;28;20026;-89
2021/07/24 01:07:27;;;;;;;9.80;7.82;;;19.90;80.60;;;;;;4993553;28;20068;-89
2021/07/24 01:09:53;;;;;;;11.35;8.18;;;19.90;80.70;;;;;;4981949;28;20156;-89
2021/07/24 01:12:19;;;;;;;12.68;8.40;;;19.80;80.90;;;;;;4996285;28;20466;-89
2021/07/24 01:14:46;;;;;;;10.15;7.75;;;19.90;81.40;;;;;;4979636;28;20045;-86
2021/07/24 01:17:11;;;;;;;10.38;8.18;;;19.80;81.30;;;;;;4995944;28;20041;-87
2021/07/24 01:19:37;;;;;;;12.48;8.75;;;19.80;81.40;;;;;;4977182;28;20026;-87
2021/07/24 01:22:03;;;;;;;10.73;7.65;;;19.80;81.60;;;;;;4995868;28;20053;-88
2021/07/24 01:24:28;;;;;;;13.60;8.38;;;19.80;81.60;;;;;;4960422;28;20077;-87
2021/07/24 01:26:54;;;;;;;11.00;8.23;;;19.80;81.80;;;;;;4949290;28;20073;-87
2021/07/24 01:29:23;;;;;;;13.43;8.38;;;19.70;82.00;;;;;;4990724;28;20479;-88
2021/07/24 01:31:48;;;;;;;12.48;8.20;;;19.70;82.00;;;;;;4995940;28;20026;-89
2021/07/24 01:34:14;;;;;;;10.23;7.75;;;19.70;82.20;;;;;;4979681;28;20028;-88
2021/07/24 01:36:40;;;;;;;12.20;8.07;;;19.70;82.40;;;;;;4996012;28;20025;-88
2021/07/24 01:39:09;;;;;;;10.45;8.02;;;19.60;82.20;;;;;;4996675;28;20117;-88
2021/07/24 01:41:34;;;;;;;10.55;7.80;;;19.60;82.40;;;;;;4979142;28;20081;-88
2021/07/24 01:44:00;;;;;;;10.55;7.93;;;19.60;82.40;;;;;;4976884;28;20030;-89
2021/07/24 01:46:26;;;;;;;12.27;8.43;;;19.60;82.40;;;;;;4981467;28;20033;-87
2021/07/24 01:54:39;;;;;;;11.80;8.23;;;19.50;82.50;;;;;;5004080;28;20036;-88
2021/07/24 01:57:09;;;;;;;10.70;8.65;;;19.50;82.90;;;;;;4996014;28;20064;-88
2021/07/24 01:59:43;;;;;;;10.95;8.00;;;19.40;83.00;;;;;;4985219;28;20371;-87
2021/07/24 02:02:09;;;;;;;11.20;7.63;;;19.40;83.10;;;;;;4966570;28;20074;-87
2021/07/24 02:04:39;;;;;;;11.57;8.77;;;19.40;83.00;;;;;;4950880;28;20073;-88
2021/07/24 02:07:09;;;;;;;10.15;8.10;;;19.40;83.10;;;;;;4957207;28;20467;-88
2021/07/24 02:09:35;;;;;;;12.00;8.23;;;19.30;83.20;;;;;;4957576;28;20081;-89
2021/07/24 02:12:03;;;;;;;14.45;8.70;;;19.30;82.90;;;;;;4945227;28;20031;-88
2021/07/24 02:14:33;;;;;;;13.10;9.13;;;19.30;83.20;;;;;;4956521;28;20027;-87
2021/07/24 02:16:59;;;;;;;12.48;8.32;;;19.20;83.00;;;;;;4957054;28;20403;-88
2021/07/24 02:19:25;;;;;;;12.65;8.30;;;19.20;83.40;;;;;;4971163;28;20035;-87
2021/07/24 02:21:51;;;;;;;13.43;9.00;;;19.20;83.50;;;;;;4957659;28;20033;-88
2021/07/24 02:24:17;;;;;;;11.10;8.07;;;19.20;83.70;;;;;;4971188;28;20110;-87
2021/07/24 02:26:43;;;;;;;11.45;8.68;;;19.10;83.90;;;;;;4957128;28;20073;-88
2021/07/24 02:29:09;;;;;;;14.68;8.55;;;19.10;84.10;;;;;;4974290;28;20046;-87
2021/07/24 02:31:35;;;;;;;11.32;8.35;;;19.10;84.20;;;;;;4957145;28;20062;-87
2021/07/24 02:34:01;;;;;;;10.32;8.07;;;19.00;84.30;;;;;;4971060;28;20049;-87
2021/07/24 02:36:27;;;;;;;11.27;8.45;;;19.00;84.50;;;;;;4967482;28;20363;-88
2021/07/24 02:38:52;;;;;;;12.73;8.60;;;19.00;84.40;;;;;;4953601;28;20022;-88
2021/07/24 02:41:18;;;;;;;11.70;8.48;;;19.00;84.60;;;;;;4975977;28;20109;-87
2021/07/24 02:43:44;;;;;;;11.30;8.27;;;19.00;84.60;;;;;;4959947;28;20027;-88
2021/07/24 02:46:09;;;;;;;11.57;8.80;;;19.00;84.80;;;;;;4971050;28;20073;-87
2021/07/24 02:48:35;;;;;;;12.57;8.77;;;19.00;84.90;;;;;;4948876;28;20031;-87
2021/07/24 02:51:03;;;;;;;10.63;8.15;;;18.90;84.90;;;;;;4954905;28;20039;-87
2021/07/24 02:53:28;;;;;;;13.38;8.48;;;18.90;84.90;;;;;;4966271;28;20026;-88
2021/07/24 02:55:54;;;;;;;11.68;8.05;;;18.90;85.10;;;;;;4962504;28;20027;-88
2021/07/24 02:58:20;;;;;;;13.75;8.60;;;18.80;85.10;;;;;;4986257;28;20094;-88
2021/07/24 03:00:45;;;;;;;12.40;8.48;;;18.80;85.30;;;;;;4960736;28;20027;-88
2021/07/24 03:03:11;;;;;;;11.20;8.20;;;18.80;85.40;;;;;;4973988;28;20051;-89
2021/07/24 03:05:37;;;;;;;13.60;9.25;;;18.70;85.30;;;;;;4956094;28;20499;-88
2021/07/24 03:08:05;;;;;;;11.13;8.07;;;18.80;85.50;;;;;;4992592;28;20038;-88
2021/07/24 03:10:31;;;;;;;12.38;9.05;;;18.70;85.50;;;;;;4976455;28;20034;-88
2021/07/24 03:12:56;;;;;;;13.50;8.35;;;18.70;85.80;;;;;;4991887;28;20035;-87
2021/07/24 03:15:22;;;;;;;11.38;8.23;;;18.70;85.80;;;;;;4976912;28;20069;-88
2021/07/24 03:17:47;;;;;;;11.05;8.63;;;18.60;85.80;;;;;;4992474;28;20023;-87
2021/07/24 03:20:14;;;;;;;9.93;7.40;;;18.60;86.00;;;;;;4959692;28;20050;-88
2021/07/24 03:22:39;;;;;;;12.98;9.07;;;18.60;86.30;;;;;;4976111;28;20030;-86
2021/07/24 03:25:06;;;;;;;13.00;9.27;;;18.60;86.30;;;;;;4976299;28;20033;-87
2021/07/24 03:27:31;;;;;;;13.00;9.00;;;18.50;86.50;;;;;;4966191;28;20086;-87
2021/07/24 03:29:57;;;;;;;11.30;8.77;;;18.50;86.50;;;;;;4987452;28;20018;-88
2021/07/24 03:32:23;;;;;;;12.63;8.65;;;18.50;86.70;;;;;;4959516;28;20054;-88
2021/07/24 03:34:48;;;;;;;11.10;8.50;;;18.50;87.00;;;;;;4976105;28;20459;-88
2021/07/24 03:37:14;;;;;;;13.52;8.98;;;18.50;86.70;;;;;;4972171;28;20062;-87
2021/07/24 03:39:39;;;;;;;11.85;8.57;;;18.50;86.70;;;;;;4978070;28;20073;-87
2021/07/24 03:42:05;;;;;;;12.68;8.50;;;18.40;86.80;;;;;;4967077;28;20517;-89
2021/07/24 03:44:31;;;;;;;13.30;9.23;;;18.40;87.00;;;;;;4963146;28;20049;-88
2021/07/24 03:46:57;;;;;;;12.05;8.82;;;18.40;87.00;;;;;;4982870;28;20478;-88
2021/07/24 03:49:22;;;;;;;12.10;9.02;;;18.40;87.20;;;;;;4974538;28;20041;-88
2021/07/24 03:51:48;;;;;;;11.63;8.65;;;18.40;87.30;;;;;;4994702;28;20441;-87
2021/07/24 03:54:14;;;;;;;13.15;9.00;;;18.30;87.50;;;;;;4974401;28;20543;-87
2021/07/24 03:56:39;;;;;;;12.05;8.75;;;18.30;87.40;;;;;;4974960;28;20081;-88
2021/07/24 03:59:08;;;;;;;11.77;8.48;;;18.30;87.30;;;;;;4984781;28;20033;-88
2021/07/24 04:01:34;;;;;;;13.68;9.13;;;18.30;87.50;;;;;;4982982;28;20050;-88
2021/07/24 04:04:00;;;;;;;12.40;9.40;;;18.30;87.70;;;;;;4997164;28;20052;-87
2021/07/24 04:06:27;;;;;;;12.80;9.05;;;18.30;87.90;;;;;;4978392;28;20026;-88
2021/07/24 04:08:55;;;;;;;12.85;8.75;;;18.30;88.20;;;;;;4997302;28;20033;-88
2021/07/24 04:11:21;;;;;;;13.13;9.40;;;18.20;87.80;;;;;;4997236;28;20045;-87
2021/07/24 04:13:48;;;;;;;12.50;8.85;;;18.20;87.70;;;;;;4992011;28;20030;-88
2021/07/24 04:16:14;;;;;;;12.15;8.80;;;18.20;88.00;;;;;;4978918;28;20033;-88
2021/07/24 04:18:40;;;;;;;12.35;8.55;;;18.20;88.10;;;;;;4969523;28;20483;-88
2021/07/24 04:21:05;;;;;;;12.32;9.45;;;18.20;88.20;;;;;;4963199;28;20125;-89
2021/07/24 04:23:31;;;;;;;12.05;8.75;;;18.10;88.30;;;;;;4998052;28;20138;-88
2021/07/24 04:25:57;;;;;;;13.10;9.10;;;18.20;88.20;;;;;;4981449;28;20061;-90
2021/07/24 04:28:26;;;;;;;12.02;8.50;;;18.10;88.20;;;;;;4979077;28;20030;-88
2021/07/24 04:30:54;;;;;;;12.07;8.32;;;18.10;88.40;;;;;;4982329;28;20058;-89
2021/07/24 04:33:23;;;;;;;13.20;8.98;;;18.10;88.70;;;;;;4974233;28;20493;-89
2021/07/24 04:35:49;;;;;;;11.77;8.75;;;18.10;88.80;;;;;;4981082;28;20018;-91
2021/07/24 04:38:16;;;;;;;11.98;9.18;;;18.10;89.00;;;;;;5000205;28;20497;-89
2021/07/24 04:40:42;;;;;;;12.07;9.02;;;18.10;89.10;;;;;;5001672;28;20028;-87
2021/07/24 04:43:09;;;;;;;11.93;8.40;;;18.10;89.00;;;;;;4981845;28;20027;-87
2021/07/24 04:45:39;;;;;;;11.35;8.20;;;18.00;89.20;;;;;;5007520;28;20056;-86
2021/07/24 04:48:05;;;;;;;13.38;8.50;;;18.00;89.30;;;;;;5012934;28;20038;-86
2021/07/24 04:50:31;;;;;;;11.85;8.45;;;18.00;89.30;;;;;;4970785;28;20034;-88
2021/07/24 04:52:56;;;;;;;13.90;8.60;;;18.10;89.40;;;;;;4963969;28;20037;-86
2021/07/24 04:55:24;;;;;;;12.32;8.50;;;18.00;89.30;;;;;;4978169;28;20034;-85
2021/07/24 04:57:50;;;;;;;10.90;8.27;;;18.00;89.70;;;;;;4991415;28;20049;-86
2021/07/24 05:00:17;;;;;;;11.88;8.68;;;18.00;89.80;;;;;;4997540;28;20382;-85
2021/07/24 05:02:45;;;;;;;11.55;8.18;;;18.00;89.80;;;;;;4985499;28;20046;-86
2021/07/24 05:05:12;;;;;;;13.38;8.52;;;18.00;89.90;;;;;;4982206;28;20466;-88
2021/07/24 05:07:38;;;;;;;11.00;7.90;;;18.00;89.90;;;;;;4961779;28;20050;-86
2021/07/24 05:10:08;;;;;;;10.93;7.85;;;18.00;90.00;;;;;;4977762;28;20466;-86
2021/07/24 05:12:34;;;;;;;11.57;7.90;;;18.00;90.00;;;;;;4996597;28;20037;-86
2021/07/24 05:15:00;;;;;;;10.90;8.05;;;18.10;90.10;;;;;;5002702;28;20050;-87
2021/07/24 05:17:26;;;;;;;12.05;8.52;;;18.10;90.10;;;;;;4980567;28;20453;-87
2021/07/24 05:19:51;;;;;;;11.07;7.85;;;18.10;90.10;;;;;;5005565;28;20434;-87
2021/07/24 05:22:17;;;;;;;11.88;8.40;;;18.10;90.10;;;;;;4981985;28;20066;-87
2021/07/24 05:24:46;;;;;;;9.75;7.45;;;18.10;90.10;;;;;;4992985;28;20364;-87
2021/07/24 05:27:13;;;;;;;12.50;8.55;;;18.10;90.20;;;;;;5008436;28;20138;-87
2021/07/24 05:29:39;;;;;;;10.50;7.95;;;18.10;90.20;;;;;;4961174;28;20035;-87
2021/07/24 05:32:05;;;;;;;11.52;8.45;;;18.10;90.40;;;;;;4977479;28;20022;-87
2021/07/24 05:34:31;;;;;;;10.73;7.80;;;18.10;90.30;;;;;;4976858;28;20019;-87
2021/07/24 05:36:57;;;;;;;11.32;8.40;;;18.10;90.20;;;;;;4977689;28;20117;-87
2021/07/24 05:39:22;;;;;;;10.52;7.65;;;18.10;90.20;;;;;;4995349;28;20443;-87
2021/07/24 05:41:48;;;;;;;12.90;8.23;;;18.10;90.20;;;;;;4980208;28;20391;-87
2021/07/24 05:44:17;;;;;;;11.35;8.05;;;18.20;90.20;;;;;;4996579;28;20018;-88
2021/07/24 05:46:44;;;;;;;10.25;7.88;;;18.10;90.30;;;;;;4996617;28;20454;-87
2021/07/24 05:49:10;;;;;;;10.48;7.95;;;18.10;90.30;;;;;;4983974;28;20030;-87
2021/07/24 05:51:37;;;;;;;11.15;7.40;;;18.20;90.30;;;;;;5007873;28;20038;-87
2021/07/24 05:54:03;;;;;;;11.18;8.02;;;18.20;90.40;;;;;;4993675;28;20037;-87
2021/07/24 05:56:28;;;;;;;10.30;7.55;;;18.20;90.40;;;;;;4976407;28;20035;-86
2021/07/24 05:58:54;;;;;;;12.77;8.88;;;18.20;90.30;;;;;;4980118;28;20038;-86
2021/07/24 06:01:20;;;;;;;12.25;8.48;;;18.20;90.30;;;;;;4962600;28;20057;-86
2021/07/24 06:03:45;;;;;;;10.68;7.05;;;18.20;90.30;;;;;;4976419;28;20074;-87
2021/07/24 06:06:11;;;;;;;10.00;7.25;;;18.20;90.20;;;;;;4967319;28;20069;-86
2021/07/24 06:08:37;;;;;;;13.25;8.18;;;18.20;90.30;;;;;;4978162;28;20038;-86
2021/07/24 06:11:04;;;;;;;11.77;7.50;;;18.30;90.30;;;;;;4996040;28;20030;-87
2021/07/24 06:13:30;;;;;;;10.63;7.63;;;18.30;90.60;;;;;;4979174;28;20031;-87
2021/07/24 06:15:57;;;;;;;10.82;7.63;;;18.30;90.30;;;;;;4962635;28;20035;-86
2021/07/24 06:18:23;;;;;;;11.98;7.60;;;18.30;90.30;;;;;;4987318;28;20495;-87
2021/07/24 06:20:49;;;;;;;12.00;7.80;;;18.40;90.30;;;;;;4982041;28;20018;-86
2021/07/24 06:23:16;;;;;;;10.23;7.95;;;18.40;90.30;;;;;;4971251;28;20046;-87
2021/07/24 06:25:49;;;;;;;10.55;8.02;;;18.40;90.30;;;;;;4977791;28;20041;-88
2021/07/24 06:28:15;;;;;;;11.43;7.97;;;18.40;90.30;;;;;;4980112;28;20033;-87
2021/07/24 06:30:41;;;;;;;10.80;7.70;;;18.50;90.20;;;;;;4981582;28;20038;-87
2021/07/24 06:33:07;;;;;;;9.77;7.10;;;18.50;90.60;;;;;;4979385;28;20538;-87
2021/07/24 06:35:33;;;;;;;10.93;7.20;;;18.50;90.20;;;;;;4982929;28;20090;-86
2021/07/24 06:37:59;;;;;;;9.77;7.18;;;18.50;90.30;;;;;;4993251;28;20227;-87
2021/07/24 06:40:26;;;;;;;9.63;6.50;;;18.60;90.30;;;;;;4968739;28;20117;-87
2021/07/24 06:42:52;;;;;;;10.10;7.68;;;18.60;90.30;;;;;;5006684;28;20442;-87
2021/07/24 06:45:18;;;;;;;11.20;7.85;;;18.60;90.30;;;;;;4986255;28;20062;-88
2021/07/24 06:47:44;;;;;;;11.18;7.25;;;18.60;90.50;;;;;;4960923;28;20037;-87
2021/07/24 06:50:10;;;;;;;11.60;7.70;;;18.70;90.20;;;;;;4990611;28;20031;-87
2021/07/24 06:52:36;;;;;;;13.23;7.93;;;18.70;90.20;;;;;;4968914;28;20045;-87
2021/07/24 06:55:02;;;;;;;10.10;7.75;;;18.70;90.30;;;;;;4978146;28;20034;-88
2021/07/24 06:57:27;;;;;;;9.43;6.80;;;18.80;90.30;;;;;;4975904;28;20033;-88
2021/07/24 06:59:53;;;;;;;9.73;7.15;;;18.80;90.30;;;;;;4967791;28;20042;-88
2021/07/24 07:02:19;;;;;;;9.45;7.25;;;18.80;90.20;;;;;;4989037;28;20407;-88
2021/07/24 07:04:45;;;;;;;10.82;7.10;;;18.80;90.20;;;;;;4989754;28;20029;-88
2021/07/24 07:07:10;;;;;;;9.85;6.95;;;18.90;90.30;;;;;;4978613;28;20393;-88
2021/07/24 07:09:36;;;;;;;10.77;7.57;;;18.90;90.30;;;;;;4989962;28;20529;-88
2021/07/24 07:12:02;;;;;;;11.02;7.63;;;18.90;90.20;;;;;;4985779;28;20457;-89
2021/07/24 07:14:28;;;;;;;11.30;8.00;;;19.00;90.30;;;;;;4988427;28;20021;-88
2021/07/24 07:16:54;;;;;;;9.68;7.80;;;19.00;90.40;;;;;;4975653;28;20045;-88
2021/07/24 07:19:21;;;;;;;9.55;7.22;;;19.00;90.40;;;;;;4993191;28;20034;-88
2021/07/24 07:21:47;;;;;;;11.48;8.38;;;19.10;90.40;;;;;;4994262;28;20045;-87
2021/07/24 07:24:13;;;;;;;11.38;7.75;;;19.10;90.50;;;;;;4991008;28;20057;-89
2021/07/24 07:26:40;;;;;;;11.15;7.72;;;19.10;90.40;;;;;;4999763;28;20494;-88
2021/07/24 07:29:06;;;;;;;10.20;7.63;;;19.10;90.40;;;;;;4976701;28;20057;-89
2021/07/24 07:31:33;;;;;;;9.68;7.47;;;19.20;90.50;;;;;;5009671;28;20455;-88
2021/07/24 07:33:59;;;;;;;9.60;7.40;;;19.30;90.50;;;;;;4993770;28;20014;-88
2021/07/24 07:36:25;;;;;;;9.10;6.78;;;19.20;90.40;;;;;;4994098;28;20026;-89
2021/07/24 07:38:50;;;;;;;11.02;7.88;;;19.30;90.40;;;;;;4994558;28;20025;-88
2021/07/24 07:41:20;;;;;;;9.23;7.10;;;19.30;90.40;;;;;;4994745;28;20562;-89
2021/07/24 07:43:49;;;;;;;9.98;7.18;;;19.40;90.40;;;;;;4994503;28;20022;-89
2021/07/24 07:46:15;;;;;;;10.10;7.00;;;19.40;90.40;;;;;;4994380;28;20030;-89
2021/07/24 07:48:42;;;;;;;9.15;7.40;;;19.40;90.40;;;;;;5012459;28;20038;-88
2021/07/24 07:51:08;;;;;;;10.10;7.50;;;19.50;90.40;;;;;;4978044;28;20129;-91
2021/07/24 07:53:35;;;;;;;8.65;6.65;;;19.50;90.40;;;;;;4998093;28;20030;-92
2021/07/24 07:56:01;;;;;;;9.50;6.82;;;19.60;90.40;;;;;;4998619;28;20025;-93
2021/07/24 07:58:27;;;;;;;10.10;6.50;;;19.60;90.40;;;;;;4994537;28;20113;-93
2021/07/24 08:00:53;;;;;;;8.85;6.40;;;19.70;90.30;;;;;;4988702;28;20097;-91
2021/07/24 08:03:24;;;;;;;8.20;6.50;;;19.70;90.30;;;;;;5015635;28;20104;-91
2021/07/24 08:05:50;;;;;;;10.10;7.03;;;19.80;90.40;;;;;;4999104;28;20072;-90
2021/07/24 08:08:16;;;;;;;8.02;6.10;;;19.80;90.30;;;;;;4966600;28;20037;-93
2021/07/24 08:10:42;;;;;;;8.23;5.90;;;19.90;90.30;;;;;;4997619;28;20057;-91
2021/07/24 08:13:17;;;;;;;8.93;5.90;;;20.00;90.30;;;;;;5006177;28;20375;-90
2021/07/24 08:15:48;;;;;;;8.40;6.72;;;20.00;90.30;;;;;;4978623;28;20033;-90
2021/07/24 08:18:14;;;;;;;9.32;6.30;;;20.10;90.60;;;;;;4993753;28;20026;-90
2021/07/24 08:20:40;;;;;;;8.85;5.88;;;20.20;90.20;;;;;;4981770;28;20050;-81
2021/07/24 08:23:08;;;;;;;8.57;5.95;;;20.20;90.20;;;;;;4984490;28;20027;-83
2021/07/24 08:25:34;;;;;;;7.00;5.20;;;20.30;90.10;;;;;;4979363;28;20018;-83
2021/07/24 08:28:01;;;;;;;8.20;6.18;;;20.40;90.10;;;;;;4980532;28;20124;-83
2021/07/24 08:30:27;;;;;;;8.18;6.15;;;20.50;90.10;;;;;;5000825;28;20097;-92
2021/07/24 08:32:52;;;;;;;7.22;5.70;;;20.50;90.00;;;;;;4981542;28;20065;-88
2021/07/24 08:35:18;;;;;;;7.97;5.75;;;20.60;89.80;;;;;;5023894;28;20046;-88
2021/07/24 08:37:44;;;;;;;8.18;6.07;;;20.70;89.70;;;;;;5022550;28;20026;-87
2021/07/24 08:40:12;;;;;;;8.30;6.05;;;20.80;89.50;;;;;;5007564;28;20052;-86
2021/07/24 08:42:39;;;;;;;8.00;5.82;;;20.80;89.40;;;;;;4989944;28;20049;-88
2021/07/24 08:45:06;;;;;;;8.80;5.28;;;20.90;90.00;;;;;;5018164;28;20058;-85
2021/07/24 08:47:31;;;;;;;7.55;5.43;;;21.00;89.40;;;;;;5002022;28;20379;-86
2021/07/24 08:49:59;;;;;;;7.10;5.22;;;21.00;89.20;;;;;;4990587;28;20113;-87
2021/07/24 08:52:28;;;;;;;7.93;6.38;;;21.10;89.00;;;;;;5010703;28;20033;-86
2021/07/24 08:54:54;;;;;;;6.25;4.90;;;21.20;88.90;;;;;;4997957;28;20026;-87
2021/07/24 08:57:26;;;;;;;7.28;5.10;;;21.20;88.70;;;;;;5013670;28;20053;-88
2021/07/24 08:59:55;;;;;;;7.03;5.63;;;21.30;88.50;;;;;;5013260;28;20089;-86
2021/07/24 09:02:25;;;;;;;6.30;4.70;;;21.40;88.40;;;;;;5013230;28;20054;-86
2021/07/24 09:04:53;;;;;;;;;;;21.40;88.30;;;;;;5013524;28;20025;-86
2021/07/24 09:07:20;;;;;;;7.10;5.18;;;21.50;88.30;;;;;;4996251;28;19914;-93
2021/07/24 09:09:48;;;;;;;7.90;5.88;;;21.50;88.30;;;;;;4958725;28;20039;-90
2021/07/24 09:12:14;;;;;;;6.82;5.63;;;21.50;88.10;;;;;;4989665;28;20092;-91
2021/07/24 09:14:40;;;;;;;8.45;5.57;;;21.60;88.10;;;;;;4997578;28;20478;-92
2021/07/24 09:17:09;;;;;;;6.72;5.45;;;21.60;88.20;;;;;;4966049;28;20121;-90
2021/07/24 09:19:36;;;;;;;7.80;5.78;;;21.70;88.20;;;;;;4976586;28;20165;-88
2021/07/24 09:22:01;;;;;;;7.75;5.57;;;21.80;88.10;;;;;;4990718;28;20124;-89
2021/07/24 09:24:27;;;;;;;7.15;5.40;;;21.90;88.80;;;;;;4984436;28;20077;-89
2021/07/24 09:26:53;;;;;;;9.02;5.50;;;22.00;88.10;;;;;;5014359;28;20037;-90
2021/07/24 09:29:20;;;;;;;9.18;6.20;;;22.10;88.10;;;;;;4982808;28;20351;-90
2021/07/24 09:31:47;;;;;;;8.98;5.80;;;22.10;88.30;;;;;;4980664;28;20036;-91
2021/07/24 09:34:15;;;;;;;8.50;5.25;;;22.20;88.00;;;;;;4996718;28;20076;-91
2021/07/24 09:36:43;;;;;;;6.38;5.22;;;22.20;87.90;;;;;;4996687;28;20014;-87
2021/07/24 09:39:26;;;;;;;9.10;5.78;;;22.30;87.90;;;;;;5013763;28;20053;-90
2021/07/24 09:41:51;;;;;;;8.50;5.47;;;22.40;87.90;;;;;;4978978;28;20089;-90
2021/07/24 09:44:34;;;;;;;8.23;5.65;;;22.40;87.90;;;;;;4976206;28;20474;-91
2021/07/24 09:47:01;;;;;;;9.63;5.47;;;22.50;87.70;;;;;;4988376;28;20505;-87
2021/07/24 09:49:37;;;;;;;21.48;7.03;;;22.50;87.80;;;;;;4989797;28;20037;-87
2021/07/24 09:52:19;;;;;;;14.52;7.53;;;22.50;87.70;;;;;;4990689;28;20022;-92
2021/07/24 09:54:45;;;;;;;10.77;7.32;;;22.50;87.10;;;;;;5003800;28;20133;-90
2021/07/24 09:57:33;;;;;;;7.05;5.72;;;22.60;87.10;;;;;;4983180;28;20058;-93
2021/07/24 10:00:22;;;;;;;8.05;5.60;;;22.60;87.10;;;;;;4993824;28;20023;-93
2021/07/24 10:02:55;;;;;;;10.05;6.90;;;22.60;87.00;;;;;;4985385;28;20045;-95
2021/07/24 10:05:21;;;;;;;7.97;6.47;;;22.60;86.80;;;;;;4970580;28;20022;-95
2021/07/24 10:07:53;;;;;;;7.80;6.55;;;22.70;86.70;;;;;;4963271;28;20098;-96
2021/07/24 10:10:19;;;;;;;11.25;7.25;;;22.70;86.70;;;;;;4981063;28;20034;-95
2021/07/24 10:12:49;;;;;;;8.55;6.82;;;22.70;86.30;;;;;;4966248;28;20030;-96
2021/07/24 10:15:15;;;;;;;;;;;22.70;86.30;;;;;;4981773;28;20027;-93
2021/07/24 10:17:44;;;;;;;8.30;6.47;;;22.70;86.00;;;;;;4972807;28;19906;-94
2021/07/24 10:20:14;;;;;;;8.73;6.28;;;22.70;86.00;;;;;;4975180;28;20023;-92
2021/07/24 10:22:40;;;;;;;9.18;6.63;;;22.70;86.20;;;;;;4967326;28;20038;-92
2021/07/24 10:25:07;;;;;;;9.10;7.20;;;22.80;86.20;;;;;;4977201;28;20033;-90
2021/07/24 10:30:05;;;;;;;;;;;22.70;84.00;;;;;;5012925;28;20041;-82
2021/07/24 10:32:33;;;;;;;10.02;7.80;;;22.80;84.90;;;;;;4996272;28;20339;-83
2021/07/24 10:35:00;;;;;;;10.25;8.45;;;22.80;85.40;;;;;;4976847;28;20087;-83
2021/07/24 10:37:42;;;;;;;8.60;6.90;;;22.80;85.30;;;;;;5006892;28;20122;-83
2021/07/24 10:40:24;;;;;;;9.60;7.90;;;22.80;85.60;;;;;;4987173;28;20045;-83
2021/07/24 10:42:53;;;;;;;10.18;8.02;;;22.80;85.60;;;;;;5014453;28;20022;-84
2021/07/24 10:45:31;;;;;;;11.43;8.50;;;22.80;84.90;;;;;;4997535;28;20026;-83
2021/07/24 10:48:15;;;;;;;10.57;7.60;;;22.90;85.00;;;;;;4995958;28;20030;-83
2021/07/24 10:50:53;;;;;;;10.07;7.45;;;22.90;85.30;;;;;;4996174;28;20037;-83
2021/07/24 10:53:23;;;;;;;9.98;7.93;;;22.90;85.30;;;;;;4982460;28;20025;-82
2021/07/24 10:55:50;;;;;;;9.10;6.95;;;22.90;85.10;;;;;;4978894;28;20030;-83
2021/07/24 10:58:22;;;;;;;7.75;6.80;;;22.90;85.40;;;;;;4991486;28;20027;-84
2021/07/24 11:00:51;;;;;;;7.93;6.40;;;23.00;86.30;;;;;;5007834;28;20072;-83
2021/07/24 11:03:31;;;;;;;9.90;7.13;;;23.00;86.00;;;;;;4994715;28;20498;-83
2021/07/24 11:05:58;;;;;;;8.52;6.78;;;23.00;86.40;;;;;;4994902;28;20483;-83
2021/07/24 11:09:01;;;;;;;9.02;7.10;;;23.10;86.20;;;;;;4995254;28;20026;-83
2021/07/24 11:11:43;;;;;;;10.65;7.55;;;23.20;86.30;;;;;;4993800;28;20081;-84
2021/07/24 11:14:35;;;;;;;9.68;7.20;;;23.10;86.10;;;;;;4986116;28;20478;-85
2021/07/24 11:19:49;;;;;;;9.20;6.70;;;23.20;86.50;;;;;;5012328;28;20373;-85
2021/07/24 11:22:24;;;;;;;10.23;6.90;;;23.20;86.70;;;;;;4999345;28;20040;-84
2021/07/24 11:24:49;;;;;;;9.07;6.75;;;23.20;86.60;;;;;;5015663;28;20471;-84
2021/07/24 11:27:26;;;;;;;10.40;7.25;;;23.30;86.80;;;;;;5007815;28;20061;-84
2021/07/24 11:30:13;;;;;;;9.05;7.05;;;23.30;86.80;;;;;;4993571;28;20042;-84
2021/07/24 11:32:40;;;;;;;7.97;6.57;;;23.30;86.90;;;;;;5017883;28;20033;-83
2021/07/24 11:35:11;;;;;;;10.35;7.68;;;23.30;87.10;;;;;;5035398;28;20029;-84
2021/07/24 11:37:48;;;;;;;9.35;7.63;;;23.30;87.10;;;;;;5017579;28;20441;-83
2021/07/24 11:40:34;;;;;;;9.88;7.65;;;23.40;87.00;;;;;;5007723;28;20026;-84
2021/07/24 11:43:26;;;;;;;9.85;7.18;;;23.40;87.10;;;;;;5016551;28;20042;-84
2021/07/24 11:46:12;;;;;;;9.35;7.47;;;23.40;87.50;;;;;;4993272;28;20093;-83
2021/07/24 11:48:40;;;;;;;9.82;7.45;;;23.40;86.70;;;;;;4977300;28;20065;-83
2021/07/24 11:51:11;;;;;;;10.45;7.72;;;23.40;86.40;;;;;;4993538;28;20034;-84
2021/07/24 11:53:37;;;;;;;10.57;8.02;;;23.40;86.70;;;;;;4977269;28;20034;-87
2021/07/24 11:56:09;;;;;;;8.90;7.25;;;23.50;86.90;;;;;;4993283;28;20041;-82
2021/07/24 11:58:35;;;;;;;10.65;7.97;;;23.50;87.00;;;;;;4994975;28;20031;-84
2021/07/24 12:01:03;;;;;;;9.18;7.88;;;23.50;87.00;;;;;;4978545;28;20435;-84
2021/07/24 12:03:30;;;;;;;10.50;8.48;;;23.50;87.10;;;;;;4978657;28;20034;-84
2021/07/24 12:06:12;;;;;;;10.63;8.63;;;23.50;86.70;;;;;;4962658;28;20058;-84
2021/07/24 12:08:41;;;;;;;11.32;9.45;;;23.50;86.50;;;;;;4994829;28;20121;-85
2021/07/24 12:14:29;;;;;;;11.05;8.35;;;23.60;86.40;;;;;;4987133;28;20404;-84
2021/07/24 12:17:08;;;;;;;10.98;8.02;;;23.60;86.20;;;;;;4994273;28;20018;-83
2021/07/24 12:19:44;;;;;;;11.20;8.30;;;23.60;86.60;;;;;;4974924;28;20034;-85
2021/07/24 12:22:18;;;;;;;10.32;9.05;;;23.60;87.00;;;;;;4993172;28;20034;-84
2021/07/24 12:24:45;;;;;;;9.35;8.20;;;23.60;86.60;;;;;;4982277;28;20032;-85
2021/07/24 12:27:19;;;;;;;11.75;8.90;;;23.60;86.40;;;;;;4983274;28;20026;-85
2021/07/24 12:29:49;;;;;;;11.80;8.52;;;23.60;86.40;;;;;;4988683;28;20136;-84
2021/07/24 12:32:15;;;;;;;11.80;9.80;;;23.60;86.80;;;;;;5015629;28;20017;-84
2021/07/24 12:34:42;;;;;;;11.50;9.00;;;23.60;86.00;;;;;;5002088;28;20033;-85
2021/07/24 12:37:08;;;;;;;10.55;9.43;;;23.60;86.00;;;;;;4997937;28;20030;-87
2021/07/24 12:39:37;;;;;;;11.25;9.32;;;23.60;85.90;;;;;;5007097;28;20036;-87
2021/07/24 12:42:03;;;;;;;12.43;9.00;;;23.60;85.50;;;;;;5017879;28;20078;-87
2021/07/24 12:44:30;;;;;;;12.63;9.25;;;23.60;85.60;;;;;;5005246;28;20111;-89
2021/07/24 12:47:14;;;;;;;10.57;9.25;;;23.60;85.40;;;;;;5020159;28;20026;-89
2021/07/24 12:49:43;;;;;;;12.57;9.90;;;23.60;85.60;;;;;;5034819;28;20097;-88
2021/07/24 12:52:41;;;;;;;12.93;9.13;;;23.60;85.80;;;;;;5009798;28;20124;-89
2021/07/24 12:55:10;;;;;;;10.60;8.95;;;23.60;86.10;;;;;;5029879;28;20028;-89
2021/07/24 12:57:37;;;;;;;11.93;9.38;;;23.60;85.90;;;;;;5021170;28;20034;-89
2021/07/24 13:00:11;;;;;;;11.20;9.40;;;23.60;85.80;;;;;;5004572;28;20026;-87